Time;durP1;ratioP1;P1;durP2;ratioP2;P2;SDS_P1;SDS_P2;PMS_P1;PMS_P2;Temp;Humidity;BMP_temperature;BMP_pressure;BME280_temperature;BME280_humidity;BME280_pressure;Samples;Min_cycle;Max_cycle;Signal;HPM_P1;HPM_P2
2023/08/09 00:02:21;;;;;;;5.97;4.60;;;19.50;62.20;;;;;;5053939;28;20036;-70
2023/08/09 00:04:50;;;;;;;7.40;4.72;;;19.30;62.40;;;;;;5055121;28;20043;-70
2023/08/09 00:07:17;;;;;;;7.97;5.10;;;19.20;63.40;;;;;;5054745;28;20494;-70
2023/08/09 00:09:45;;;;;;;6.47;4.53;;;19.70;62.40;;;;;;5054730;28;20013;-70
2023/08/09 00:12:13;;;;;;;5.13;4.07;;;20.00;61.30;;;;;;5053957;28;20052;-70
2023/08/09 00:14:40;;;;;;;7.72;4.15;;;19.80;61.70;;;;;;5054970;28;20044;-70
2023/08/09 00:17:08;;;;;;;8.50;3.35;;;20.00;61.40;;;;;;5053856;28;20025;-70
2023/08/09 00:19:35;;;;;;;5.40;3.45;;;19.80;61.60;;;;;;5054976;28;20024;-69
2023/08/09 00:22:03;;;;;;;6.15;3.60;;;20.10;60.90;;;;;;5053538;28;20069;-68
2023/08/09 00:24:31;;;;;;;5.30;3.60;;;19.40;61.50;;;;;;5053942;28;20329;-69
2023/08/09 00:26:58;;;;;;;4.53;3.20;;;19.90;61.10;;;;;;5053721;28;20025;-70
2023/08/09 00:29:26;;;;;;;5.10;3.10;;;20.20;61.00;;;;;;5053688;28;20355;-70
2023/08/09 00:31:56;;;;;;;5.35;2.60;;;20.20;60.70;;;;;;5053826;28;20056;-70
2023/08/09 00:34:23;;;;;;;3.67;2.15;;;20.50;59.80;;;;;;5054760;28;20397;-65
2023/08/09 00:36:51;;;;;;;4.35;1.85;;;20.00;59.80;;;;;;5053471;28;20033;-66
2023/08/09 00:39:20;;;;;;;5.40;2.10;;;19.80;59.80;;;;;;5053195;28;20033;-65
2023/08/09 00:41:47;;;;;;;7.05;2.08;;;19.40;61.60;;;;;;5053530;28;20040;-65
2023/08/09 00:44:14;;;;;;;2.67;1.70;;;20.10;58.90;;;;;;5053683;28;20447;-65
2023/08/09 00:46:42;;;;;;;4.43;2.00;;;19.90;60.00;;;;;;5052503;28;20032;-63
2023/08/09 00:49:10;;;;;;;4.43;1.95;;;20.30;59.60;;;;;;5054269;28;20027;-63
2023/08/09 00:51:37;;;;;;;5.18;1.95;;;20.30;58.10;;;;;;5053392;28;20052;-64
2023/08/09 00:54:05;;;;;;;3.78;1.80;;;20.70;57.70;;;;;;5053275;28;20029;-63
2023/08/09 00:56:32;;;;;;;2.63;1.50;;;20.70;58.80;;;;;;5054041;28;20320;-64
2023/08/09 00:59:01;;;;;;;2.88;1.55;;;21.20;56.80;;;;;;5053534;28;20075;-64
2023/08/09 01:01:29;;;;;;;3.33;1.63;;;21.20;56.00;;;;;;5054376;28;20308;-65
2023/08/09 01:03:57;;;;;;;5.43;1.65;;;21.60;55.40;;;;;;5054464;28;20416;-64
2023/08/09 01:07:00;;;;;;;4.90;1.58;;;21.20;56.00;;;;;;5054232;28;20071;-65
2023/08/09 01:09:57;;;;;;;4.15;1.80;;;20.80;56.10;;;;;;5048094;28;20459;-64
2023/08/09 01:12:30;;;;;;;3.83;1.60;;;20.90;56.10;;;;;;5035167;28;20504;-65
2023/08/09 01:15:03;;;;;;;2.42;1.20;;;21.20;56.00;;;;;;5053127;28;20053;-65
2023/08/09 01:17:33;;;;;;;2.80;1.40;;;21.20;54.10;;;;;;5052355;28;20079;-65
2023/08/09 01:20:04;;;;;;;3.35;1.50;;;21.20;54.80;;;;;;5052518;28;20502;-65
2023/08/09 01:22:36;;;;;;;3.38;1.30;;;21.00;54.10;;;;;;5057310;28;20459;-65
2023/08/09 01:25:08;;;;;;;2.58;1.20;;;21.50;53.40;;;;;;5057706;28;20075;-65
2023/08/09 01:27:35;;;;;;;;;;;21.20;53.60;;;;;;5058057;28;20382;-65
2023/08/09 01:30:07;;;;;;;3.08;1.30;;;21.60;52.50;;;;;;5057010;28;20266;-64
2023/08/09 01:32:37;;;;;;;3.53;1.30;;;21.20;53.90;;;;;;5057785;28;20029;-65
2023/08/09 01:35:05;;;;;;;3.40;1.25;;;21.60;53.90;;;;;;5057780;28;20470;-64
2023/08/09 01:37:53;;;;;;;4.20;1.48;;;21.90;51.80;;;;;;5056587;28;20040;-65
2023/08/09 01:40:22;;;;;;;5.35;1.58;;;21.60;51.60;;;;;;5057685;28;20328;-64
2023/08/09 01:42:52;;;;;;;2.58;1.10;;;21.60;52.00;;;;;;5056512;28;20083;-64
2023/08/09 01:45:20;;;;;;;3.22;1.30;;;21.50;52.30;;;;;;5057528;28;20028;-64
2023/08/09 01:47:48;;;;;;;2.60;1.20;;;21.50;50.90;;;;;;5057453;28;20017;-64
2023/08/09 01:50:27;;;;;;;2.17;1.35;;;21.50;51.90;;;;;;5057729;28;20025;-64
2023/08/09 01:52:55;;;;;;;2.10;1.10;;;21.70;50.40;;;;;;5057547;28;20352;-64
2023/08/09 01:55:25;;;;;;;3.00;1.20;;;22.40;49.00;;;;;;5056543;28;20032;-64
2023/08/09 01:57:52;;;;;;;1.98;1.10;;;22.30;48.10;;;;;;5056365;28;20032;-64
2023/08/09 02:00:24;;;;;;;3.72;1.23;;;22.50;48.70;;;;;;5057322;28;20451;-63
2023/08/09 02:02:53;;;;;;;1.70;0.90;;;22.00;49.20;;;;;;5056889;28;20382;-64
2023/08/09 02:05:21;;;;;;;2.95;1.05;;;21.60;48.00;;;;;;5055456;28;20059;-65
2023/08/09 02:07:50;;;;;;;3.47;1.20;;;22.20;47.40;;;;;;5055832;28;20029;-64
2023/08/09 02:10:18;;;;;;;1.98;1.35;;;22.60;47.60;;;;;;5056079;28;20048;-65
2023/08/09 02:12:47;;;;;;;3.00;1.20;;;22.80;46.80;;;;;;5057143;28;20025;-65
2023/08/09 02:15:15;;;;;;;2.60;1.33;;;22.10;47.60;;;;;;5057023;28;20431;-65
2023/08/09 02:17:45;;;;;;;2.58;1.17;;;21.80;48.40;;;;;;5056839;28;20025;-64
2023/08/09 02:20:13;;;;;;;2.75;1.13;;;21.70;49.70;;;;;;5056934;28;20036;-64
2023/08/09 02:22:42;;;;;;;3.65;1.30;;;21.90;48.20;;;;;;5056912;28;20044;-65
2023/08/09 02:25:10;;;;;;;2.20;1.20;;;22.10;48.50;;;;;;5055715;28;20029;-64
2023/08/09 02:27:39;;;;;;;2.28;1.02;;;22.60;47.40;;;;;;5055715;28;20021;-64
2023/08/09 02:30:08;;;;;;;3.05;1.27;;;22.30;46.50;;;;;;5055799;28;20029;-64
2023/08/09 02:32:39;;;;;;;2.80;1.30;;;22.70;46.10;;;;;;5056356;28;20044;-64
2023/08/09 02:35:07;;;;;;;2.35;1.10;;;23.10;45.60;;;;;;5056513;28;20448;-66
2023/08/09 02:37:34;;;;;;;1.88;1.35;;;22.60;45.80;;;;;;5054951;28;20037;-65
2023/08/09 02:40:04;;;;;;;2.60;1.20;;;22.50;46.80;;;;;;5055169;28;20025;-66
2023/08/09 02:42:32;;;;;;;2.63;1.13;;;22.40;47.00;;;;;;5055171;28;20078;-65
2023/08/09 02:44:59;;;;;;;4.10;1.40;;;22.70;47.10;;;;;;5056119;28;20028;-66
2023/08/09 02:47:27;;;;;;;2.80;1.48;;;23.20;46.10;;;;;;5054563;28;20036;-65
2023/08/09 02:49:54;;;;;;;3.38;1.42;;;23.60;45.90;;;;;;5054691;28;20028;-65
2023/08/09 02:52:22;;;;;;;3.03;1.27;;;23.10;45.90;;;;;;5054730;28;20451;-66
2023/08/09 02:54:49;;;;;;;1.95;1.05;;;23.00;46.50;;;;;;5055878;28;20107;-66
2023/08/09 02:57:17;;;;;;;2.30;1.02;;;23.40;45.90;;;;;;5055762;28;20100;-65
2023/08/09 02:59:46;;;;;;;2.17;1.10;;;23.50;44.30;;;;;;5054888;28;20459;-65
2023/08/09 03:02:15;;;;;;;2.53;1.02;;;23.70;43.70;;;;;;5055745;28;20033;-65
2023/08/09 03:04:43;;;;;;;2.25;1.10;;;23.20;44.10;;;;;;5054681;28;20049;-65
2023/08/09 03:07:11;;;;;;;2.55;1.15;;;23.40;43.30;;;;;;5055296;28;20052;-65
2023/08/09 03:09:38;;;;;;;2.92;1.20;;;23.50;43.40;;;;;;5054430;28;20039;-63
2023/08/09 03:12:06;;;;;;;3.78;1.30;;;23.50;41.90;;;;;;5054547;28;20346;-63
2023/08/09 03:14:34;;;;;;;2.05;1.10;;;23.20;41.10;;;;;;5054502;28;20021;-63
2023/08/09 03:17:02;;;;;;;2.35;0.90;;;23.20;42.10;;;;;;5055516;28;20021;-64
2023/08/09 03:19:29;;;;;;;2.13;1.20;;;23.60;42.40;;;;;;5055721;28;20380;-63
2023/08/09 03:21:57;;;;;;;1.63;1.05;;;23.60;41.70;;;;;;5054493;28;20086;-65
2023/08/09 03:24:24;;;;;;;2.10;1.10;;;23.50;41.10;;;;;;5054568;28;20355;-65
2023/08/09 03:26:52;;;;;;;2.00;1.17;;;23.30;41.30;;;;;;5055236;28;20333;-64
2023/08/09 03:29:20;;;;;;;1.05;0.85;;;23.80;41.30;;;;;;5055547;28;20029;-63
2023/08/09 03:31:47;;;;;;;2.65;1.05;;;24.00;40.40;;;;;;5054438;28;20098;-64
2023/08/09 03:34:15;;;;;;;3.45;1.63;;;23.30;40.40;;;;;;5055527;28;20443;-63
2023/08/09 03:36:42;;;;;;;2.13;1.10;;;23.40;40.60;;;;;;5054047;28;20021;-65
2023/08/09 03:39:11;;;;;;;1.50;1.20;;;23.50;40.40;;;;;;5055116;28;20320;-64
2023/08/09 03:41:38;;;;;;;1.80;1.13;;;24.10;39.50;;;;;;5053840;28;20025;-64
2023/08/09 03:44:06;;;;;;;2.35;1.13;;;24.00;39.50;;;;;;5054401;28;20041;-64
2023/08/09 03:46:34;;;;;;;1.50;1.00;;;23.70;39.50;;;;;;5054641;28;20395;-64
2023/08/09 03:49:02;;;;;;;2.42;1.30;;;23.60;39.90;;;;;;5054777;28;20032;-64
2023/08/09 03:51:30;;;;;;;1.88;1.10;;;23.20;40.60;;;;;;5053761;28;20310;-63
2023/08/09 03:53:57;;;;;;;2.35;1.20;;;23.10;40.60;;;;;;5054925;28;20033;-64
2023/08/09 03:56:25;;;;;;;1.90;1.00;;;23.10;40.20;;;;;;5054842;28;20021;-64
2023/08/09 03:58:52;;;;;;;1.65;1.10;;;23.10;40.90;;;;;;5053429;28;20040;-63
2023/08/09 04:01:21;;;;;;;2.08;1.40;;;23.70;39.90;;;;;;5054251;28;20435;-62
2023/08/09 04:03:49;;;;;;;1.70;1.10;;;23.50;40.70;;;;;;5053300;28;20033;-63
2023/08/09 04:06:16;;;;;;;2.88;1.30;;;23.60;40.20;;;;;;5053462;28;20041;-63
2023/08/09 04:08:46;;;;;;;1.70;1.00;;;23.60;40.10;;;;;;5055086;28;20016;-63
2023/08/09 04:11:13;;;;;;;1.52;1.00;;;24.00;39.70;;;;;;5054354;28;20324;-63
2023/08/09 04:13:41;;;;;;;1.65;1.20;;;24.10;39.50;;;;;;5054899;28;20025;-64
2023/08/09 04:16:09;;;;;;;2.40;1.10;;;24.00;39.60;;;;;;5054882;28;20021;-65
2023/08/09 04:18:37;;;;;;;1.52;1.15;;;23.90;39.90;;;;;;5054800;28;20480;-64
2023/08/09 04:21:06;;;;;;;1.38;0.90;;;23.80;40.00;;;;;;5053726;28;20074;-64
2023/08/09 04:23:34;;;;;;;1.60;1.13;;;23.80;39.30;;;;;;5055031;28;20155;-63
2023/08/09 04:26:03;;;;;;;2.17;1.10;;;23.50;39.10;;;;;;5053706;28;20402;-64
2023/08/09 04:28:31;;;;;;;2.03;1.10;;;23.20;39.00;;;;;;5054679;28;20112;-65
2023/08/09 04:31:01;;;;;;;1.75;1.23;;;22.90;40.40;;;;;;5053885;28;20104;-65
2023/08/09 04:33:29;;;;;;;2.72;1.10;;;23.40;39.70;;;;;;5054957;28;20036;-65
2023/08/09 04:35:57;;;;;;;1.35;1.00;;;23.20;40.40;;;;;;5054887;28;20029;-66
2023/08/09 04:38:24;;;;;;;1.35;1.00;;;23.20;40.40;;;;;;5053737;28;20024;-67
2023/08/09 04:40:52;;;;;;;2.55;1.40;;;23.50;39.80;;;;;;5053707;28;20103;-65
2023/08/09 04:43:19;;;;;;;2.53;1.10;;;23.90;39.70;;;;;;5054574;28;20052;-65
2023/08/09 04:45:47;;;;;;;4.30;1.45;;;23.70;39.50;;;;;;5054707;28;20025;-65
2023/08/09 04:48:18;;;;;;;4.32;1.40;;;24.10;39.50;;;;;;5054482;28;20021;-64
2023/08/09 04:50:47;;;;;;;2.72;1.10;;;23.70;40.10;;;;;;5054694;28;20028;-66
2023/08/09 04:53:15;;;;;;;1.52;1.10;;;23.70;39.80;;;;;;5053615;28;20032;-66
2023/08/09 04:55:42;;;;;;;1.98;1.17;;;24.10;39.00;;;;;;5054828;28;20091;-66
2023/08/09 04:58:10;;;;;;;2.45;1.08;;;24.30;39.20;;;;;;5058491;28;20051;-66
2023/08/09 05:00:38;;;;;;;2.47;1.25;;;23.70;40.50;;;;;;5057566;28;20115;-66
2023/08/09 05:03:06;;;;;;;1.83;1.10;;;24.20;40.80;;;;;;5057306;28;20025;-65
2023/08/09 05:05:34;;;;;;;2.92;0.90;;;23.80;40.40;;;;;;5058251;28;20045;-66
2023/08/09 05:08:01;;;;;;;3.10;1.05;;;24.10;40.60;;;;;;5058434;28;20071;-67
2023/08/09 05:10:29;;;;;;;2.78;1.33;;;23.80;40.00;;;;;;5057294;28;20454;-66
2023/08/09 05:12:57;;;;;;;1.88;1.02;;;24.10;40.60;;;;;;5057215;28;20025;-66
2023/08/09 05:15:24;;;;;;;1.92;1.10;;;24.60;40.10;;;;;;5057102;28;20403;-66
2023/08/09 05:17:52;;;;;;;2.15;1.08;;;25.10;39.30;;;;;;5058046;28;20530;-66
2023/08/09 05:20:20;;;;;;;2.38;1.20;;;24.60;39.20;;;;;;5058185;28;20074;-66
2023/08/09 05:22:48;;;;;;;2.10;1.25;;;24.70;39.40;;;;;;5057990;28;20362;-66
2023/08/09 05:25:16;;;;;;;2.50;1.00;;;24.80;39.20;;;;;;5057996;28;20025;-65
2023/08/09 05:27:48;;;;;;;1.52;1.00;;;25.40;38.70;;;;;;5057796;28;20044;-65
2023/08/09 05:30:18;;;;;;;1.48;1.20;;;25.80;37.90;;;;;;5056826;28;20021;-65
2023/08/09 05:32:47;;;;;;;1.60;1.00;;;25.60;37.50;;;;;;5057766;28;20025;-65
2023/08/09 05:35:15;;;;;;;3.35;1.30;;;25.60;37.60;;;;;;5056488;28;20029;-65
2023/08/09 05:37:42;;;;;;;2.60;1.60;;;26.20;36.40;;;;;;5056295;28;20031;-65
2023/08/09 05:40:12;;;;;;;2.42;1.23;;;26.20;36.20;;;;;;5056381;28;20336;-65
2023/08/09 05:42:41;;;;;;;1.60;1.30;;;26.60;36.40;;;;;;5056249;28;20476;-64
2023/08/09 05:45:09;;;;;;;2.53;1.38;;;26.10;36.60;;;;;;5056279;28;20035;-65
2023/08/09 05:47:37;;;;;;;1.38;0.95;;;25.80;37.10;;;;;;5057202;28;20025;-65
2023/08/09 05:50:06;;;;;;;2.22;1.20;;;26.20;36.90;;;;;;5057233;28;20060;-65
2023/08/09 05:52:34;;;;;;;2.67;1.20;;;26.20;36.30;;;;;;5056371;28;20463;-65
2023/08/09 05:55:01;;;;;;;2.88;1.25;;;26.20;36.30;;;;;;5056189;28;20028;-65
2023/08/09 05:57:29;;;;;;;2.63;1.20;;;26.60;35.90;;;;;;5055961;28;20025;-65
2023/08/09 05:59:56;;;;;;;1.92;1.20;;;27.10;35.20;;;;;;5057262;28;20029;-65
2023/08/09 06:02:24;;;;;;;4.50;1.55;;;27.30;35.30;;;;;;5057127;28;20386;-66
2023/08/09 06:04:52;;;;;;;1.67;1.35;;;27.00;35.50;;;;;;5056267;28;20021;-66
2023/08/09 06:07:19;;;;;;;3.20;1.30;;;26.10;35.80;;;;;;5055122;28;20052;-66
2023/08/09 06:09:47;;;;;;;2.60;1.30;;;25.50;36.80;;;;;;5057114;28;20474;-66
2023/08/09 06:12:15;;;;;;;3.13;1.38;;;25.30;37.40;;;;;;5057105;28;20111;-66
2023/08/09 06:14:43;;;;;;;2.00;1.27;;;25.90;36.90;;;;;;5056110;28;20036;-65
2023/08/09 06:17:10;;;;;;;3.75;1.38;;;24.80;38.10;;;;;;5055848;28;20036;-65
2023/08/09 06:19:38;;;;;;;2.70;1.20;;;23.40;40.20;;;;;;5055904;28;20033;-64
2023/08/09 06:22:06;;;;;;;3.08;1.70;;;22.00;42.60;;;;;;5056797;28;20117;-65
2023/08/09 06:24:34;;;;;;;3.72;1.20;;;21.30;43.80;;;;;;5055759;28;20029;-65
2023/08/09 06:27:01;;;;;;;2.67;1.17;;;21.00;44.50;;;;;;5056684;28;20036;-55
2023/08/09 06:29:28;;;;;;;2.03;1.23;;;20.80;44.80;;;;;;5054798;28;20374;-61
2023/08/09 06:32:02;;;;;;;2.47;1.40;;;20.60;45.80;;;;;;5054624;28;20040;-63
2023/08/09 06:34:29;;;;;;;1.98;1.10;;;20.50;46.80;;;;;;5054638;28;20025;-62
2023/08/09 06:36:56;;;;;;;2.67;1.10;;;20.40;46.20;;;;;;5055755;28;20052;-63
2023/08/09 06:39:24;;;;;;;2.53;1.38;;;20.30;46.70;;;;;;5055556;28;20382;-64
2023/08/09 06:41:58;;;;;;;1.88;1.38;;;20.20;46.90;;;;;;5056392;28;20347;-64
2023/08/09 06:44:25;;;;;;;2.50;1.50;;;20.10;47.10;;;;;;5056189;28;20025;-63
2023/08/09 06:46:56;;;;;;;1.95;1.33;;;20.00;47.00;;;;;;5055314;28;20049;-63
2023/08/09 06:49:23;;;;;;;4.25;1.40;;;20.00;47.70;;;;;;5056847;28;20017;-64
2023/08/09 06:51:51;;;;;;;2.63;1.50;;;19.80;48.20;;;;;;5056184;28;20100;-62
2023/08/09 06:54:19;;;;;;;2.97;1.73;;;19.70;48.70;;;;;;5055132;28;20106;-62
2023/08/09 06:56:46;;;;;;;3.40;2.10;;;19.60;48.70;;;;;;5054922;28;20110;-64
2023/08/09 06:59:14;;;;;;;4.13;1.75;;;19.60;49.20;;;;;;5054936;28;20025;-62
2023/08/09 07:01:43;;;;;;;2.92;1.65;;;19.40;49.40;;;;;;5054802;28;20116;-63
2023/08/09 07:04:11;;;;;;;3.20;1.55;;;19.30;49.80;;;;;;5055144;28;20013;-63
2023/08/09 07:06:39;;;;;;;3.35;1.60;;;19.20;50.50;;;;;;5055043;28;20463;-61
2023/08/09 07:09:11;;;;;;;1.85;1.40;;;19.10;49.90;;;;;;5055791;28;20025;-61
2023/08/09 07:11:39;;;;;;;3.33;1.45;;;19.10;50.60;;;;;;5055144;28;20052;-63
2023/08/09 07:14:07;;;;;;;3.20;1.30;;;19.00;50.60;;;;;;5054777;28;20036;-63
2023/08/09 07:16:38;;;;;;;3.97;2.25;;;18.80;51.00;;;;;;5054697;28;20142;-63
2023/08/09 07:19:05;;;;;;;3.03;1.70;;;18.70;51.60;;;;;;5054745;28;20056;-63
2023/08/09 07:21:33;;;;;;;4.32;1.55;;;18.50;52.40;;;;;;5055454;28;20357;-62
2023/08/09 07:24:00;;;;;;;3.72;1.40;;;18.30;53.40;;;;;;5054653;28;20083;-62
2023/08/09 07:26:28;;;;;;;2.53;1.50;;;18.30;53.40;;;;;;5054525;28;20024;-61
2023/08/09 07:29:00;;;;;;;2.97;1.50;;;18.20;53.70;;;;;;5054729;28;20127;-72
2023/08/09 07:31:28;;;;;;;2.15;1.55;;;18.10;54.50;;;;;;5055872;28;20071;-73
2023/08/09 07:33:56;;;;;;;2.47;1.52;;;17.90;55.20;;;;;;5055280;28;20032;-74
2023/08/09 07:36:23;;;;;;;2.65;1.65;;;17.70;55.60;;;;;;5055377;28;20025;-74
2023/08/09 07:38:51;;;;;;;2.78;1.50;;;17.70;56.10;;;;;;5054302;28;20404;-73
2023/08/09 07:41:19;;;;;;;3.40;1.63;;;17.60;56.10;;;;;;5054063;28;20025;-74
2023/08/09 07:43:48;;;;;;;2.63;1.60;;;17.60;56.40;;;;;;5055333;28;20028;-73
2023/08/09 07:46:16;;;;;;;2.50;1.50;;;17.50;57.20;;;;;;5055100;28;20032;-72
2023/08/09 07:48:43;;;;;;;5.03;1.90;;;17.30;57.70;;;;;;5055101;28;20025;-73
2023/08/09 07:51:11;;;;;;;5.10;2.10;;;17.20;57.70;;;;;;5054285;28;20079;-73
2023/08/09 07:53:40;;;;;;;3.30;1.83;;;17.10;58.00;;;;;;5055247;28;20032;-72
2023/08/09 07:56:08;;;;;;;3.30;1.83;;;17.00;58.20;;;;;;5054207;28;20111;-72
2023/08/09 07:58:36;;;;;;;2.88;1.55;;;17.00;58.60;;;;;;5055291;28;20017;-73
2023/08/09 08:01:04;;;;;;;2.90;1.73;;;16.80;59.10;;;;;;5055060;28;20064;-72
2023/08/09 08:03:34;;;;;;;2.22;1.60;;;16.70;59.40;;;;;;5055214;28;20063;-74
2023/08/09 08:06:02;;;;;;;2.63;1.60;;;16.70;59.50;;;;;;5055002;28;20051;-72
2023/08/09 08:08:30;;;;;;;3.65;1.63;;;16.60;59.90;;;;;;5054112;28;20078;-73
2023/08/09 08:10:58;;;;;;;3.03;1.63;;;16.50;60.20;;;;;;5054977;28;20025;-73
2023/08/09 08:13:25;;;;;;;3.80;1.60;;;16.40;60.50;;;;;;5053952;28;20118;-74
2023/08/09 08:15:52;;;;;;;2.88;1.77;;;16.30;60.70;;;;;;5054889;28;20032;-73
2023/08/09 08:18:20;;;;;;;4.10;1.90;;;16.10;61.20;;;;;;5053907;28;20050;-74
2023/08/09 08:20:47;;;;;;;3.55;2.08;;;16.00;61.80;;;;;;5055045;28;20080;-74
2023/08/09 08:23:15;;;;;;;6.05;2.47;;;15.80;62.40;;;;;;5055139;28;20355;-74
2023/08/09 08:25:44;;;;;;;4.32;1.95;;;15.60;63.60;;;;;;5054921;28;20118;-73
2023/08/09 08:28:14;;;;;;;3.05;2.00;;;15.70;63.40;;;;;;5053383;28;20025;-73
2023/08/09 08:30:42;;;;;;;4.07;2.05;;;15.60;63.10;;;;;;5055837;28;20398;-73
2023/08/09 08:33:09;;;;;;;7.28;2.45;;;15.60;63.60;;;;;;5059000;28;20025;-73
2023/08/09 08:35:43;;;;;;;3.45;2.10;;;15.50;63.70;;;;;;5058978;28;20033;-72
2023/08/09 08:38:12;;;;;;;5.18;2.70;;;15.30;65.10;;;;;;5057881;28;20040;-72
2023/08/09 08:40:39;;;;;;;5.72;2.65;;;15.20;65.30;;;;;;5057907;28;20024;-72
2023/08/09 08:43:08;;;;;;;6.88;2.88;;;15.20;65.60;;;;;;5057683;28;20024;-73
2023/08/09 08:45:41;;;;;;;9.25;3.30;;;15.30;65.70;;;;;;5057732;28;20021;-73
2023/08/09 08:48:10;;;;;;;4.65;3.35;;;15.20;65.70;;;;;;5059368;28;20025;-74
2023/08/09 08:50:41;;;;;;;6.90;3.67;;;15.00;65.90;;;;;;5057668;28;20021;-73
2023/08/09 08:53:10;;;;;;;8.18;4.43;;;15.00;66.30;;;;;;5057721;28;20116;-74
2023/08/09 08:55:39;;;;;;;7.90;4.03;;;15.00;66.90;;;;;;5058481;28;20096;-72
2023/08/09 08:58:08;;;;;;;6.15;3.72;;;15.00;67.50;;;;;;5057593;28;20379;-74
2023/08/09 09:00:38;;;;;;;6.30;3.92;;;14.90;67.90;;;;;;5057468;28;20017;-74
2023/08/09 09:03:06;;;;;;;7.57;4.38;;;14.80;68.10;;;;;;5058130;28;20351;-62
2023/08/09 09:05:34;;;;;;;10.85;6.20;;;14.70;68.20;;;;;;5058209;28;20040;-72
2023/08/09 09:08:02;;;;;;;8.00;5.38;;;14.70;69.00;;;;;;5058117;28;20025;-72
2023/08/09 09:10:30;;;;;;;5.13;3.60;;;14.80;69.10;;;;;;5057247;28;20047;-73
2023/08/09 09:12:57;;;;;;;6.20;3.55;;;14.80;69.40;;;;;;5058205;28;20028;-73
2023/08/09 09:15:27;;;;;;;6.22;3.65;;;14.70;69.40;;;;;;5057170;28;20029;-73
2023/08/09 09:17:55;;;;;;;6.30;3.70;;;14.50;70.20;;;;;;5057083;28;20039;-73
2023/08/09 09:20:27;;;;;;;6.57;4.15;;;14.50;70.50;;;;;;5057212;28;20029;-73
2023/08/09 09:22:54;;;;;;;;;;;14.50;70.40;;;;;;5058509;28;20064;-73
2023/08/09 09:25:22;;;;;;;6.05;4.07;;;14.60;70.10;;;;;;5058340;28;20006;-74
2023/08/09 09:27:54;;;;;;;5.93;3.97;;;14.50;70.30;;;;;;5059846;28;20025;-74
2023/08/09 09:30:29;;;;;;;6.85;3.95;;;14.50;70.50;;;;;;5058534;28;20033;-73
2023/08/09 09:33:04;;;;;;;5.10;3.35;;;14.40;71.20;;;;;;5056860;28;20040;-73
2023/08/09 09:35:33;;;;;;;7.10;4.05;;;14.60;70.60;;;;;;5057818;28;20336;-73
2023/08/09 09:38:08;;;;;;;4.43;3.30;;;14.30;70.90;;;;;;5056656;28;20477;-74
2023/08/09 09:40:36;;;;;;;5.80;3.38;;;14.30;70.80;;;;;;5058098;28;20106;-73
2023/08/09 09:43:06;;;;;;;7.38;4.18;;;14.20;71.10;;;;;;5055602;28;20524;-73
2023/08/09 09:45:34;;;;;;;5.85;3.63;;;14.10;71.30;;;;;;5056571;28;20060;-74
2023/08/09 09:48:02;;;;;;;5.18;3.35;;;14.00;72.10;;;;;;5057577;28;20514;-73
2023/08/09 09:50:33;;;;;;;4.82;3.10;;;14.00;72.00;;;;;;5057560;28;20435;-74
2023/08/09 09:53:02;;;;;;;4.65;2.97;;;13.80;72.10;;;;;;5057651;28;20021;-74
2023/08/09 09:55:30;;;;;;;5.40;2.70;;;13.80;72.30;;;;;;5056663;28;20025;-74
2023/08/09 09:57:59;;;;;;;5.68;3.20;;;13.70;72.40;;;;;;5057238;28;20514;-73
2023/08/09 10:00:28;;;;;;;4.22;2.95;;;13.50;73.40;;;;;;5056294;28;20124;-74
2023/08/09 10:02:59;;;;;;;5.38;3.20;;;13.50;73.10;;;;;;5057177;28;20167;-74
2023/08/09 10:05:35;;;;;;;6.33;3.40;;;13.30;73.90;;;;;;5056201;28;20135;-74
2023/08/09 10:08:07;;;;;;;4.20;3.00;;;13.30;74.60;;;;;;5057069;28;20304;-73
2023/08/09 10:10:36;;;;;;;7.50;3.55;;;13.40;73.70;;;;;;5057161;28;20025;-73
2023/08/09 10:13:07;;;;;;;4.95;3.00;;;13.20;74.50;;;;;;5056128;28;20036;-73
2023/08/09 10:15:42;;;;;;;6.18;3.30;;;13.00;75.70;;;;;;5055852;28;20108;-73
2023/08/09 10:18:19;;;;;;;5.50;3.15;;;12.80;76.30;;;;;;5055858;28;20025;-73
2023/08/09 10:20:55;;;;;;;5.28;3.40;;;12.70;76.40;;;;;;5057155;28;20055;-73
2023/08/09 10:23:25;;;;;;;7.40;2.97;;;12.60;77.30;;;;;;5056027;28;20025;-73
2023/08/09 10:25:55;;;;;;;6.25;3.10;;;12.50;77.40;;;;;;5055901;28;20525;-73
2023/08/09 10:28:45;;;;;;;6.35;3.10;;;12.50;77.50;;;;;;5057301;28;20020;-73
2023/08/09 10:31:14;;;;;;;4.95;3.03;;;12.60;76.20;;;;;;5055909;28;20040;-73
2023/08/09 10:34:07;;;;;;;5.47;3.13;;;12.70;75.30;;;;;;5056864;28;20071;-74
2023/08/09 10:36:35;;;;;;;7.22;3.53;;;12.60;76.20;;;;;;5052180;28;20423;-73
2023/08/09 10:39:17;;;;;;;6.90;4.30;;;12.50;76.30;;;;;;5056736;28;20028;-73
2023/08/09 10:42:06;;;;;;;6.30;4.20;;;12.40;77.40;;;;;;5055546;28;20025;-73
2023/08/09 10:44:43;;;;;;;7.45;4.68;;;12.10;78.60;;;;;;5056794;28;20029;-72
2023/08/09 10:47:25;;;;;;;8.48;5.22;;;12.00;78.10;;;;;;5055515;28;20021;-72
2023/08/09 10:49:53;;;;;;;8.13;4.70;;;12.00;78.70;;;;;;5056975;28;20036;-75
2023/08/09 10:52:38;;;;;;;9.05;4.50;;;12.10;78.40;;;;;;5056277;28;20025;-76
2023/08/09 10:55:29;;;;;;;9.02;6.05;;;12.20;77.70;;;;;;5055357;28;20446;-75
2023/08/09 10:57:59;;;;;;;8.05;5.18;;;12.00;78.40;;;;;;5056341;28;20086;-75
2023/08/09 11:00:36;;;;;;;9.25;5.90;;;11.90;78.80;;;;;;5056424;28;20028;-76
2023/08/09 11:03:04;;;;;;;7.35;5.00;;;11.70;79.80;;;;;;5056550;28;20104;-75
2023/08/09 11:05:31;;;;;;;9.02;5.70;;;11.60;79.60;;;;;;5054981;28;20037;-75
2023/08/09 11:08:09;;;;;;;8.18;4.97;;;11.70;79.20;;;;;;5055234;28;20044;-75
2023/08/09 11:10:41;;;;;;;10.57;6.88;;;11.60;79.00;;;;;;5054455;28;20112;-75
2023/08/09 11:13:14;;;;;;;14.85;9.00;;;11.50;79.70;;;;;;5055788;28;20031;-75
2023/08/09 11:15:46;;;;;;;10.50;7.53;;;11.50;80.10;;;;;;5056020;28;20502;-75
2023/08/09 11:18:15;;;;;;;11.82;6.55;;;11.40;80.20;;;;;;5071674;28;20025;-75
2023/08/09 11:20:44;;;;;;;9.85;6.07;;;11.30;80.30;;;;;;5055961;28;20025;-75
2023/08/09 11:23:13;;;;;;;8.50;5.82;;;11.30;79.80;;;;;;5071429;28;20025;-76
2023/08/09 11:25:40;;;;;;;8.05;5.57;;;11.40;79.40;;;;;;5055728;28;20017;-75
2023/08/09 11:28:14;;;;;;;8.45;5.38;;;11.20;80.30;;;;;;5055632;28;20066;-75
2023/08/09 11:30:42;;;;;;;6.65;5.13;;;11.00;81.10;;;;;;5055629;28;20115;-75
2023/08/09 11:33:12;;;;;;;9.55;5.75;;;11.00;81.20;;;;;;5054644;28;20469;-74
2023/08/09 11:35:44;;;;;;;6.05;4.65;;;10.90;81.20;;;;;;5055406;28;20443;-74
2023/08/09 11:38:15;;;;;;;;;;;10.80;81.40;;;;;;5039504;28;20451;-75
2023/08/09 11:40:46;;;;;;;7.82;5.30;;;10.80;80.80;;;;;;5071883;28;19916;-75
2023/08/09 11:43:18;;;;;;;9.93;5.35;;;10.90;80.20;;;;;;5071638;28;20058;-75
2023/08/09 11:45:48;;;;;;;;;;;10.90;80.90;;;;;;5071750;28;20059;-75
2023/08/09 11:48:34;;;;;;;6.43;3.90;;;10.80;80.90;;;;;;5055492;28;19911;-74
2023/08/09 11:51:07;;;;;;;6.25;3.15;;;10.70;81.20;;;;;;5055249;28;20067;-75
2023/08/09 11:53:36;;;;;;;7.95;4.00;;;10.50;82.20;;;;;;5071128;28;20040;-75
2023/08/09 11:56:06;;;;;;;12.10;6.57;;;10.60;82.10;;;;;;5056502;28;20029;-75
2023/08/09 11:58:37;;;;;;;7.18;4.20;;;10.50;82.30;;;;;;5055070;28;20033;-62
2023/08/09 12:01:25;;;;;;;6.32;3.78;;;10.60;81.40;;;;;;5054624;28;20029;-76
2023/08/09 12:03:55;;;;;;;6.70;3.38;;;10.50;81.60;;;;;;5054394;28;20098;-76
2023/08/09 12:06:35;;;;;;;10.07;4.32;;;10.40;82.40;;;;;;5053663;28;20198;-77
2023/08/09 12:09:25;;;;;;;7.10;3.80;;;10.30;82.80;;;;;;5054514;28;20109;-76
2023/08/09 12:11:53;;;;;;;5.70;3.55;;;10.20;82.70;;;;;;5055321;28;20343;-76
2023/08/09 12:14:21;;;;;;;7.07;4.65;;;10.40;81.80;;;;;;5054277;28;20392;-76
2023/08/09 12:16:48;;;;;;;7.10;5.10;;;10.40;81.60;;;;;;5053986;28;20104;-76
2023/08/09 12:19:16;;;;;;;7.68;5.00;;;10.40;81.20;;;;;;5055278;28;20017;-75
2023/08/09 12:21:43;;;;;;;6.63;3.92;;;10.40;81.20;;;;;;5054603;28;20100;-77
2023/08/09 12:24:11;;;;;;;6.93;3.95;;;10.20;81.90;;;;;;5054721;28;20025;-75
2023/08/09 12:26:39;;;;;;;5.38;3.47;;;10.20;82.40;;;;;;5054204;28;20025;-75
2023/08/09 12:29:06;;;;;;;7.43;4.00;;;10.10;82.80;;;;;;5055172;28;20017;-77
2023/08/09 12:31:34;;;;;;;8.18;4.57;;;10.20;81.90;;;;;;5055093;28;20032;-75
2023/08/09 12:34:02;;;;;;;6.07;3.67;;;10.00;82.30;;;;;;5054796;28;20025;-62
2023/08/09 12:36:31;;;;;;;5.15;3.05;;;10.00;82.90;;;;;;5055043;28;20013;-62
2023/08/09 12:38:58;;;;;;;5.47;3.38;;;9.80;83.30;;;;;;5054877;28;20017;-63
2023/08/09 12:41:26;;;;;;;6.53;3.53;;;9.70;83.90;;;;;;5053997;28;20021;-62
2023/08/09 12:43:53;;;;;;;5.55;3.45;;;9.80;84.00;;;;;;5055048;28;20013;-63
2023/08/09 12:46:21;;;;;;;5.55;3.40;;;9.90;82.70;;;;;;5054285;28;20355;-65
2023/08/09 12:48:48;;;;;;;5.35;3.65;;;10.00;82.20;;;;;;5054911;28;20017;-63
2023/08/09 12:51:16;;;;;;;7.18;3.90;;;10.00;81.80;;;;;;5053995;28;20021;-66
2023/08/09 12:53:46;;;;;;;5.20;3.85;;;10.00;82.10;;;;;;5053743;28;20036;-64
2023/08/09 12:56:14;;;;;;;5.65;3.80;;;10.00;82.00;;;;;;5053939;28;20067;-64
2023/08/09 12:58:42;;;;;;;7.57;3.60;;;9.80;82.50;;;;;;5055018;28;20043;-63
2023/08/09 13:01:10;;;;;;;6.05;3.63;;;9.70;83.40;;;;;;5053852;28;20025;-63